Time;durP1;ratioP1;P1;durP2;ratioP2;P2;SDS_P1;SDS_P2;PMS_P1;PMS_P2;Temp;Humidity;BMP_temperature;BMP_pressure;BME280_temperature;BME280_humidity;BME280_pressure;Samples;Min_cycle;Max_cycle;Signal;HPM_P1;HPM_P2
2023/11/18 00:01:46;;;;;;;;;;;19.60;67.70;;;;;;5003524;28;1360;-70
2023/11/18 00:04:20;;;;;;;;;;;19.60;67.70;;;;;;5002082;28;1269;-70
2023/11/18 00:06:45;;;;;;;;;;;19.60;67.70;;;;;;5003995;28;1415;-71
2023/11/18 00:09:14;;;;;;;;;;;19.60;67.70;;;;;;5004299;28;1419;-70
2023/11/18 00:11:40;;;;;;;;;;;19.60;67.70;;;;;;5005760;28;1280;-70
2023/11/18 00:14:05;;;;;;;;;;;19.60;67.80;;;;;;5005447;28;1958;-71
2023/11/18 00:16:31;;;;;;;;;;;19.60;67.80;;;;;;5007770;28;1419;-68
2023/11/18 00:18:58;;;;;;;;;;;19.60;67.90;;;;;;5003423;28;1960;-68
2023/11/18 00:21:24;;;;;;;;;;;19.60;67.80;;;;;;5000590;28;1246;-68
2023/11/18 00:23:49;;;;;;;;;;;19.60;67.80;;;;;;5002837;28;1371;-69
2023/11/18 00:26:15;;;;;;;;;;;19.60;67.80;;;;;;5004578;28;1149;-68
2023/11/18 00:28:40;;;;;;;;;;;19.60;67.80;;;;;;5005707;28;1262;-68
2023/11/18 00:31:06;;;;;;;;;;;19.60;67.80;;;;;;5002814;28;1272;-69
2023/11/18 00:33:31;;;;;;;;;;;19.50;67.80;;;;;;5005500;28;1635;-71
2023/11/18 00:35:57;;;;;;;;;;;19.50;67.80;;;;;;5020866;28;1902;-68
2023/11/18 00:38:23;;;;;;;;;;;19.50;67.80;;;;;;5004201;28;1098;-70
2023/11/18 00:40:48;;;;;;;;;;;19.50;67.80;;;;;;4999010;28;1545;-72
2023/11/18 00:43:14;;;;;;;;;;;19.60;67.90;;;;;;5001357;28;1867;-71
2023/11/18 00:45:41;;;;;;;;;;;19.50;67.80;;;;;;5004122;28;1227;-71
2023/11/18 00:48:06;;;;;;;;;;;19.50;67.80;;;;;;5002267;28;1286;-71
2023/11/18 00:50:33;;;;;;;;;;;19.50;67.90;;;;;;5002688;28;1348;-69
2023/11/18 00:52:58;;;;;;;;;;;19.50;67.90;;;;;;5000157;28;1345;-71
2023/11/18 00:55:24;;;;;;;;;;;19.50;67.90;;;;;;5002777;28;1911;-70
2023/11/18 00:57:49;;;;;;;;;;;19.50;67.90;;;;;;5000504;28;1272;-71
2023/11/18 01:00:15;;;;;;;;;;;19.50;68.00;;;;;;5001526;28;1270;-70
2023/11/18 01:02:44;;;;;;;;;;;19.50;67.90;;;;;;5000765;28;1319;-69
2023/11/18 01:05:10;;;;;;;;;;;19.50;67.90;;;;;;5004408;28;1245;-70
2023/11/18 01:07:37;;;;;;;;;;;19.50;68.70;;;;;;5006137;28;1373;-69
2023/11/18 01:10:03;;;;;;;;;;;19.50;67.90;;;;;;5001222;28;1236;-69
2023/11/18 01:12:29;;;;;;;;;;;19.50;68.00;;;;;;5002225;28;1399;-69
2023/11/18 01:14:54;;;;;;;;;;;19.50;68.00;;;;;;5003674;28;1898;-70
2023/11/18 01:17:22;;;;;;;;;;;19.50;67.90;;;;;;5001606;28;1251;-69
2023/11/18 01:19:47;;;;;;;;;;;19.50;68.00;;;;;;5004068;28;1292;-69
2023/11/18 01:22:13;;;;;;;;;;;19.50;68.00;;;;;;5000495;28;1324;-69
2023/11/18 01:24:39;;;;;;;;;;;19.50;68.00;;;;;;5003340;28;1399;-69
2023/11/18 01:27:04;;;;;;;;;;;19.50;68.10;;;;;;4999738;28;1498;-70
2023/11/18 01:29:30;;;;;;;;;;;19.50;68.00;;;;;;5003071;28;1315;-70
2023/11/18 01:31:56;;;;;;;;;;;19.50;68.00;;;;;;5002619;28;1642;-69
2023/11/18 01:34:22;;;;;;;;;;;19.50;68.00;;;;;;5002361;28;1978;-69
2023/11/18 01:36:49;;;;;;;;;;;19.50;68.00;;;;;;5001774;28;1434;-70
2023/11/18 01:39:15;;;;;;;;;;;19.50;68.00;;;;;;5004364;28;1440;-70
2023/11/18 01:41:40;;;;;;;;;;;19.50;68.00;;;;;;5003981;28;1403;-69
2023/11/18 01:44:08;;;;;;;;;;;19.50;68.00;;;;;;5002411;28;1264;-69
2023/11/18 01:46:35;;;;;;;;;;;19.50;68.10;;;;;;5002549;28;1347;-70
2023/11/18 01:49:03;;;;;;;;;;;19.50;68.10;;;;;;5003919;28;1112;-69
2023/11/18 01:51:28;;;;;;;;;;;19.50;68.10;;;;;;4998835;28;1346;-70
2023/11/18 01:53:54;;;;;;;;;;;19.50;68.10;;;;;;4999892;28;1910;-70
2023/11/18 01:56:21;;;;;;;;;;;19.50;68.10;;;;;;5001085;28;1504;-69
2023/11/18 01:58:46;;;;;;;;;;;19.50;68.10;;;;;;5001418;28;1209;-69
2023/11/18 02:01:16;;;;;;;;;;;19.50;68.10;;;;;;5000912;28;1382;-69
2023/11/18 02:03:42;;;;;;;;;;;19.50;68.10;;;;;;5001093;28;1360;-70
2023/11/18 02:06:10;;;;;;;;;;;19.50;68.10;;;;;;5000593;28;1248;-70
2023/11/18 02:08:36;;;;;;;;;;;19.50;68.20;;;;;;5004231;28;1130;-70
2023/11/18 02:11:06;;;;;;;;;;;19.50;68.10;;;;;;5004562;28;1300;-69
2023/11/18 02:13:32;;;;;;;;;;;19.50;68.20;;;;;;5001512;28;1307;-70
2023/11/18 02:15:58;;;;;;;;;;;19.50;68.10;;;;;;5002658;28;1902;-69
2023/11/18 02:18:24;;;;;;;;;;;19.50;68.20;;;;;;5003679;28;1636;-70
2023/11/18 02:20:49;;;;;;;;;;;19.40;68.10;;;;;;5003429;28;1311;-70
2023/11/18 02:23:17;;;;;;;;;;;19.50;68.20;;;;;;5006147;28;1314;-70
2023/11/18 02:25:44;;;;;;;;;;;19.50;68.20;;;;;;5003932;28;1366;-70
2023/11/18 02:28:10;;;;;;;;;;;19.40;68.10;;;;;;4998467;28;1150;-70
2023/11/18 02:30:35;;;;;;;;;;;19.50;68.20;;;;;;4999464;28;1338;-70
2023/11/18 02:33:07;;;;;;;;;;;19.50;68.20;;;;;;5014563;28;1492;-70
2023/11/18 02:35:37;;;;;;;;;;;19.50;68.20;;;;;;5002837;28;1975;-70
2023/11/18 02:38:02;;;;;;;;;;;19.40;68.10;;;;;;5005692;28;1154;-69
2023/11/18 02:40:32;;;;;;;;;;;19.50;68.20;;;;;;5001146;28;1201;-70
2023/11/18 02:42:59;;;;;;;;;;;19.50;68.20;;;;;;4999391;28;1606;-70
2023/11/18 02:45:24;;;;;;;;;;;19.50;68.30;;;;;;5004757;28;1186;-70
2023/11/18 02:47:49;;;;;;;;;;;19.40;68.20;;;;;;4998288;28;1433;-69
2023/11/18 02:50:15;;;;;;;;;;;19.50;68.30;;;;;;5002216;28;1729;-70
2023/11/18 02:52:40;;;;;;;;;;;19.40;68.20;;;;;;5001595;28;1496;-71
2023/11/18 02:55:07;;;;;;;;;;;19.40;68.20;;;;;;5004629;28;1906;-71
2023/11/18 02:57:32;;;;;;;;;;;19.40;68.20;;;;;;4997609;28;1376;-69
2023/11/18 03:00:00;;;;;;;;;;;19.40;68.20;;;;;;5001273;28;1478;-70
2023/11/18 03:02:30;;;;;;;;;;;19.40;68.20;;;;;;5003363;28;1350;-71
2023/11/18 03:04:56;;;;;;;;;;;19.40;68.20;;;;;;5007777;28;1318;-69
2023/11/18 03:07:22;;;;;;;;;;;19.40;68.20;;;;;;5006721;28;1022;-71
2023/11/18 03:09:48;;;;;;;;;;;19.40;68.20;;;;;;5008896;28;1176;-71
2023/11/18 03:12:13;;;;;;;;;;;19.40;68.20;;;;;;5004699;28;1260;-70
2023/11/18 03:14:39;;;;;;;;;;;19.40;68.30;;;;;;5006665;28;1902;-71
2023/11/18 03:17:06;;;;;;;;;;;19.40;68.30;;;;;;5004838;28;1130;-69
2023/11/18 03:19:34;;;;;;;;;;;19.40;68.30;;;;;;5008383;28;1331;-68
2023/11/18 03:22:03;;;;;;;;;;;19.40;68.30;;;;;;5009023;28;1280;-69
2023/11/18 03:24:28;;;;;;;;;;;19.40;68.30;;;;;;5004232;28;1368;-67
2023/11/18 03:26:54;;;;;;;;;;;19.40;69.00;;;;;;5003322;28;1445;-70
2023/11/18 03:29:20;;;;;;;;;;;19.40;68.30;;;;;;5006991;28;1467;-69
2023/11/18 03:31:48;;;;;;;;;;;19.40;68.30;;;;;;5022952;28;1347;-70
2023/11/18 03:34:14;;;;;;;;;;;19.40;68.30;;;;;;5005353;28;1966;-69
2023/11/18 03:36:39;;;;;;;;;;;19.40;68.30;;;;;;5005315;28;1274;-69
2023/11/18 03:39:06;;;;;;;;;;;19.40;68.30;;;;;;5001574;28;1174;-69
2023/11/18 03:41:31;;;;;;;;;;;19.40;68.30;;;;;;5004566;28;1243;-69
2023/11/18 03:43:57;;;;;;;;;;;19.40;68.30;;;;;;5004881;28;1387;-69
2023/11/18 03:46:22;;;;;;;;;;;19.40;68.30;;;;;;5002141;28;983;-69
2023/11/18 03:48:48;;;;;;;;;;;19.40;68.30;;;;;;5002480;28;1387;-69
2023/11/18 03:51:16;;;;;;;;;;;19.40;68.30;;;;;;5004501;28;1143;-70
2023/11/18 03:53:42;;;;;;;;;;;19.40;68.30;;;;;;5003296;28;1352;-71
2023/11/18 03:56:08;;;;;;;;;;;19.40;68.30;;;;;;5007168;28;1961;-70
2023/11/18 03:58:34;;;;;;;;;;;19.40;68.30;;;;;;5020335;28;2044;-71
2023/11/18 04:01:01;;;;;;;;;;;19.40;68.30;;;;;;5003106;28;2183;-69
2023/11/18 04:03:27;;;;;;;;;;;19.40;68.30;;;;;;5005307;28;1253;-71
2023/11/18 04:05:52;;;;;;;;;;;19.40;68.30;;;;;;5006094;28;1316;-70
2023/11/18 04:08:17;;;;;;;;;;;19.40;68.30;;;;;;5002802;28;1416;-70
2023/11/18 04:10:43;;;;;;;;;;;19.40;69.00;;;;;;5006008;28;1243;-71
2023/11/18 04:13:08;;;;;;;;;;;19.40;68.30;;;;;;5002635;28;1389;-70
2023/11/18 04:15:35;;;;;;;;;;;19.40;68.30;;;;;;5003996;28;1934;-70
2023/11/18 04:18:00;;;;;;;;;;;19.40;68.30;;;;;;5004562;28;1439;-71
2023/11/18 04:20:26;;;;;;;;;;;19.40;68.30;;;;;;5002456;28;1413;-70
2023/11/18 04:22:51;;;;;;;;;;;19.40;68.30;;;;;;5002051;28;1570;-70
2023/11/18 04:25:17;;;;;;;;;;;19.40;68.30;;;;;;5002887;28;1329;-70
2023/11/18 04:27:42;;;;;;;;;;;19.40;68.30;;;;;;5008274;28;1469;-70
2023/11/18 04:30:12;;;;;;;;;;;19.40;68.60;;;;;;5000777;28;1386;-70
2023/11/18 04:32:38;;;;;;;;;;;19.40;68.30;;;;;;4999892;28;1292;-70
2023/11/18 04:35:08;;;;;;;;;;;19.40;68.30;;;;;;5002739;28;1906;-69
2023/11/18 04:37:36;;;;;;;;;;;19.40;68.30;;;;;;5002417;28;1477;-69
2023/11/18 04:40:02;;;;;;;;;;;19.40;68.30;;;;;;5002937;28;1493;-70
2023/11/18 04:42:29;;;;;;;;;;;19.30;68.20;;;;;;5002750;28;1113;-71
2023/11/18 04:44:55;;;;;;;;;;;19.40;68.30;;;;;;5003396;28;1490;-70
2023/11/18 04:47:21;;;;;;;;;;;19.40;68.30;;;;;;5003704;28;1520;-70
2023/11/18 04:49:46;;;;;;;;;;;19.30;68.30;;;;;;5003067;28;1445;-70
2023/11/18 04:52:12;;;;;;;;;;;19.40;68.30;;;;;;5006243;28;1133;-70
2023/11/18 04:54:37;;;;;;;;;;;19.40;68.40;;;;;;5001183;28;1973;-70
2023/11/18 04:57:03;;;;;;;;;;;19.40;68.30;;;;;;4999011;28;1250;-70
2023/11/18 04:59:30;;;;;;;;;;;19.40;68.30;;;;;;5002077;28;1271;-70
2023/11/18 05:01:56;;;;;;;;;;;19.40;68.30;;;;;;5003817;28;1435;-70
2023/11/18 05:04:25;;;;;;;;;;;19.40;68.30;;;;;;5004127;28;1484;-69
2023/11/18 05:06:51;;;;;;;;;;;19.40;68.30;;;;;;5002689;28;935;-71
2023/11/18 05:09:18;;;;;;;;;;;19.30;68.30;;;;;;5004588;28;1253;-70
2023/11/18 05:11:44;;;;;;;;;;;19.40;68.40;;;;;;5001158;28;1463;-69
2023/11/18 05:14:11;;;;;;;;;;;19.30;68.30;;;;;;5001960;28;1987;-70
2023/11/18 05:16:36;;;;;;;;;;;19.30;68.30;;;;;;5000451;28;1345;-70
2023/11/18 05:19:02;;;;;;;;;;;19.30;68.30;;;;;;5019363;28;1316;-70
2023/11/18 05:21:27;;;;;;;;;;;19.30;68.30;;;;;;5012005;28;1377;-71
2023/11/18 05:23:53;;;;;;;;;;;19.30;68.30;;;;;;5001335;28;1386;-71
2023/11/18 05:26:19;;;;;;;;;;;19.30;68.30;;;;;;5000087;28;1577;-71
2023/11/18 05:28:45;;;;;;;;;;;19.30;68.30;;;;;;5002322;28;1246;-70
2023/11/18 05:31:10;;;;;;;;;;;19.30;68.30;;;;;;5002663;28;1582;-69
2023/11/18 05:33:36;;;;;;;;;;;19.30;68.40;;;;;;4998629;28;1464;-69
2023/11/18 05:36:04;;;;;;;;;;;19.30;68.30;;;;;;5004226;28;1991;-71
2023/11/18 05:38:34;;;;;;;;;;;19.30;68.30;;;;;;5005975;28;1242;-70
2023/11/18 05:41:01;;;;;;;;;;;19.30;68.40;;;;;;5001267;28;1245;-71
2023/11/18 05:43:36;;;;;;;;;;;19.30;68.40;;;;;;5001005;28;1457;-70
2023/11/18 05:46:20;;;;;;;;;;;19.30;68.40;;;;;;5017400;28;1546;-71
2023/11/18 05:48:46;;;;;;;;;;;19.30;68.40;;;;;;5004521;28;1562;-70
2023/11/18 05:51:12;;;;;;;;;;;19.30;68.40;;;;;;5005804;28;1387;-70
2023/11/18 05:53:41;;;;;;;;;;;19.30;68.40;;;;;;4999012;28;1371;-70
2023/11/18 05:56:07;;;;;;;;;;;19.30;68.40;;;;;;5015792;28;1893;-70
2023/11/18 05:58:33;;;;;;;;;;;19.30;68.40;;;;;;5000762;28;1269;-69
2023/11/18 06:00:58;;;;;;;;;;;19.30;68.40;;;;;;4999143;28;1412;-70
2023/11/18 06:03:24;;;;;;;;;;;19.30;68.40;;;;;;5013505;28;1585;-70
2023/11/18 06:05:51;;;;;;;;;;;19.30;68.40;;;;;;5002509;28;1466;-70
2023/11/18 06:08:16;;;;;;;;;;;19.30;68.40;;;;;;5001296;28;1682;-71
2023/11/18 06:10:44;;;;;;;;;;;19.30;68.40;;;;;;5001227;28;1318;-70
2023/11/18 06:13:12;;;;;;;;;;;19.30;68.40;;;;;;5002420;28;1328;-71
2023/11/18 06:15:38;;;;;;;;;;;19.30;68.40;;;;;;4998841;28;1984;-70
2023/11/18 06:18:04;;;;;;;;;;;19.30;68.40;;;;;;4999252;28;1301;-70
2023/11/18 06:20:30;;;;;;;;;;;19.30;68.40;;;;;;5003102;28;1307;-71
2023/11/18 06:22:57;;;;;;;;;;;19.30;68.40;;;;;;4999391;28;1468;-70
2023/11/18 06:25:25;;;;;;;;;;;19.30;68.40;;;;;;5001451;28;1265;-71
2023/11/18 06:27:52;;;;;;;;;;;19.30;68.40;;;;;;5005174;28;1384;-70
2023/11/18 06:30:19;;;;;;;;;;;19.30;68.40;;;;;;5000889;28;1385;-71
2023/11/18 06:32:46;;;;;;;;;;;19.30;68.60;;;;;;5000247;28;1366;-70
2023/11/18 06:35:14;;;;;;;;;;;19.30;68.40;;;;;;5002138;28;1977;-70
2023/11/18 06:37:40;;;;;;;;;;;19.30;68.40;;;;;;4999649;28;1359;-70
2023/11/18 06:40:15;;;;;;;;;;;19.30;68.40;;;;;;5005149;28;1285;-70
2023/11/18 06:42:42;;;;;;;;;;;19.30;68.50;;;;;;5002232;28;1244;-70
2023/11/18 06:45:09;;;;;;;;;;;19.30;68.50;;;;;;4999610;28;1568;-70
2023/11/18 06:47:36;;;;;;;;;;;19.30;68.50;;;;;;5001404;28;1197;-70
2023/11/18 06:50:01;;;;;;;;;;;19.30;68.50;;;;;;5002725;28;1610;-70
2023/11/18 06:52:28;;;;;;;;;;;19.30;68.50;;;;;;5002807;28;1569;-70
2023/11/18 06:54:54;;;;;;;;;;;19.30;68.50;;;;;;5000012;28;1906;-70
2023/11/18 06:57:21;;;;;;;;;;;19.30;68.50;;;;;;5003322;28;1317;-70
2023/11/18 06:59:47;;;;;;;;;;;19.30;68.50;;;;;;5001862;28;1263;-70
2023/11/18 07:02:13;;;;;;;;;;;19.30;68.50;;;;;;5000244;28;1493;-70
2023/11/18 07:04:38;;;;;;;;;;;19.30;68.50;;;;;;4997520;28;1268;-69
2023/11/18 07:07:04;;;;;;;;;;;19.30;68.50;;;;;;4997825;28;1486;-70
2023/11/18 07:09:35;;;;;;;;;;;19.30;68.50;;;;;;5002580;28;1351;-70
2023/11/18 07:12:01;;;;;;;;;;;19.30;68.40;;;;;;5001575;28;1284;-71
2023/11/18 07:14:27;;;;;;;;;;;19.30;68.40;;;;;;5001204;28;1910;-70
2023/11/18 07:16:53;;;;;;;;;;;19.30;68.40;;;;;;5000487;28;1363;-71
2023/11/18 07:19:19;;;;;;;;;;;19.30;68.30;;;;;;5001310;28;1307;-70
2023/11/18 07:21:45;;;;;;;;;;;19.40;68.30;;;;;;4998245;28;1453;-70
2023/11/18 07:24:12;;;;;;;;;;;19.40;68.20;;;;;;5000143;28;1618;-71
2023/11/18 07:26:37;;;;;;;;;;;19.40;68.20;;;;;;5001663;28;1268;-70
2023/11/18 07:29:03;;;;;;;;;;;19.50;68.10;;;;;;5001606;28;1569;-71
2023/11/18 07:31:28;;;;;;;;;;;19.50;68.00;;;;;;5001224;28;1172;-71
2023/11/18 07:33:54;;;;;;;;;;;19.50;67.80;;;;;;5001475;28;1351;-71
2023/11/18 07:36:20;;;;;;;;;;;19.50;67.70;;;;;;4999836;28;1906;-70
2023/11/18 07:38:45;;;;;;;;;;;19.50;66.00;;;;;;4999822;28;1262;-71
2023/11/18 07:41:23;;;;;;;;;;;19.60;63.70;;;;;;5002880;28;1069;-71
2023/11/18 07:43:55;;;;;;;;;;;19.60;63.20;;;;;;5002059;28;1292;-70
2023/11/18 07:46:22;;;;;;;;;;;19.60;57.10;;;;;;5004787;28;1436;-71
2023/11/18 07:48:53;;;;;;;;;;;19.60;54.50;;;;;;5005675;28;1313;-71
2023/11/18 07:51:21;;;;;;;;;;;19.50;57.10;;;;;;5019756;28;1407;-70
2023/11/18 07:53:50;;;;;;;;;;;19.50;57.90;;;;;;5006065;28;1289;-70
2023/11/18 07:56:16;;;;;;;;;;;19.50;58.50;;;;;;5002815;28;1903;-71
2023/11/18 07:58:45;;;;;;;;;;;19.50;59.00;;;;;;5007991;28;1359;-70
2023/11/18 08:01:11;;;;;;;;;;;19.50;59.30;;;;;;5005318;28;2221;-69
2023/11/18 08:03:38;;;;;;;;;;;19.60;59.60;;;;;;5002825;28;1305;-70
2023/11/18 08:06:06;;;;;;;;;;;19.50;59.90;;;;;;5007751;28;1974;-70
2023/11/18 08:08:37;;;;;;;;;;;19.60;60.30;;;;;;5004860;28;1519;-70
2023/11/18 08:11:04;;;;;;;;;;;19.60;60.70;;;;;;5010385;28;1443;-70
2023/11/18 08:13:29;;;;;;;;;;;19.60;61.10;;;;;;5009702;28;1289;-70
2023/11/18 08:15:55;;;;;;;;;;;19.60;61.40;;;;;;5006313;28;1981;-70
2023/11/18 08:18:21;;;;;;;;;;;19.60;61.60;;;;;;5003365;28;1256;-68
2023/11/18 08:20:47;;;;;;;;;;;19.60;61.90;;;;;;5002545;28;1370;-69
2023/11/18 08:23:12;;;;;;;;;;;19.60;62.10;;;;;;5004036;28;1285;-70
2023/11/18 08:25:39;;;;;;;;;;;19.70;62.40;;;;;;5002536;28;1498;-70
2023/11/18 08:28:06;;;;;;;;;;;19.70;62.50;;;;;;5001014;28;1803;-70
2023/11/18 08:30:33;;;;;;;;;;;19.70;62.70;;;;;;5008513;28;1277;-70
2023/11/18 08:32:59;;;;;;;;;;;19.70;62.80;;;;;;5002005;28;1515;-71
2023/11/18 08:35:25;;;;;;;;;;;19.70;62.90;;;;;;5019361;28;1890;-70
2023/11/18 08:37:50;;;;;;;;;;;19.70;63.00;;;;;;5003657;28;2082;-70
2023/11/18 08:40:17;;;;;;;;;;;19.70;63.10;;;;;;5006158;28;1150;-70
2023/11/18 08:42:47;;;;;;;;;;;19.70;63.10;;;;;;5003557;28;1332;-70
2023/11/18 08:45:14;;;;;;;;;;;19.70;64.00;;;;;;5018221;28;1463;-71
2023/11/18 08:47:42;;;;;;;;;;;19.70;63.30;;;;;;5001081;28;1246;-70
2023/11/18 08:50:11;;;;;;;;;;;19.70;63.40;;;;;;5000455;28;1526;-68
2023/11/18 08:52:37;;;;;;;;;;;19.70;63.40;;;;;;5001532;28;1346;-68
2023/11/18 08:55:19;;;;;;;;;;;19.70;63.50;;;;;;5002816;28;1953;-68
2023/11/18 08:57:52;;;;;;;;;;;19.70;63.50;;;;;;5004609;28;1359;-68
2023/11/18 09:03:05;;;;;;;;;;;19.70;63.70;;;;;;4997910;28;1506;-68
2023/11/18 09:05:31;;;;;;;;;;;19.80;63.80;;;;;;5003484;28;1467;-69
2023/11/18 09:07:58;;;;;;;;;;;19.80;63.80;;;;;;5002844;28;1561;-68
2023/11/18 09:10:23;;;;;;;;;;;19.80;63.90;;;;;;5002777;28;1371;-68
2023/11/18 09:12:49;;;;;;;;;;;19.80;63.90;;;;;;5007492;28;1500;-68
2023/11/18 09:15:22;;;;;;;;;;;19.80;63.90;;;;;;5003308;28;2000;-69
2023/11/18 09:17:53;;;;;;;;;;;19.80;64.00;;;;;;5003039;28;1344;-68
2023/11/18 09:20:22;;;;;;;;;;;19.80;64.00;;;;;;5002204;28;1279;-68
2023/11/18 09:22:48;;;;;;;;;;;19.80;64.00;;;;;;5003883;28;1406;-69
2023/11/18 09:25:14;;;;;;;;;;;19.80;64.00;;;;;;5005907;28;1398;-69
2023/11/18 09:27:39;;;;;;;;;;;19.80;64.10;;;;;;5002396;28;1340;-68
2023/11/18 09:30:13;;;;;;;;;;;19.80;64.10;;;;;;4999442;28;1354;-69
2023/11/18 09:32:47;;;;;;;;;;;19.80;64.10;;;;;;5004586;28;1567;-69
2023/11/18 09:35:13;;;;;;;;;;;19.80;64.10;;;;;;4998910;28;1967;-69
2023/11/18 09:37:40;;;;;;;;;;;19.80;64.20;;;;;;4998718;28;1156;-69
2023/11/18 09:40:11;;;;;;;;;;;19.80;64.20;;;;;;5003299;28;1803;-69
2023/11/18 09:42:38;;;;;;;;;;;19.80;64.20;;;;;;4998686;28;1205;-69
2023/11/18 09:45:05;;;;;;;;;;;19.80;64.30;;;;;;4998465;28;1600;-69
2023/11/18 09:47:34;;;;;;;;;;;19.80;64.30;;;;;;5001577;28;1068;-69
2023/11/18 09:50:01;;;;;;;;;;;19.80;64.30;;;;;;5017529;28;1636;-69
2023/11/18 09:52:27;;;;;;;;;;;19.80;64.30;;;;;;5000229;28;1609;-70
2023/11/18 09:55:02;;;;;;;;;;;19.80;64.30;;;;;;4999645;28;1971;-69
2023/11/18 09:57:31;;;;;;;;;;;19.80;64.30;;;;;;4998468;28;1120;-69
2023/11/18 10:00:21;;;;;;;;;;;19.80;64.40;;;;;;5000946;28;1468;-69
2023/11/18 10:02:50;;;;;;;;;;;19.80;64.40;;;;;;5013903;28;1328;-69
2023/11/18 10:05:19;;;;;;;;;;;19.80;64.40;;;;;;5004753;28;1154;-69
2023/11/18 10:07:45;;;;;;;;;;;19.80;64.40;;;;;;5002891;28;1263;-69
2023/11/18 10:10:16;;;;;;;;;;;19.80;64.40;;;;;;5003682;28;1501;-69
2023/11/18 10:12:43;;;;;;;;;;;19.80;64.50;;;;;;5000884;28;1376;-69
2023/11/18 10:15:11;;;;;;;;;;;19.80;64.50;;;;;;5001023;28;1992;-69
2023/11/18 10:17:57;;;;;;;;;;;19.80;64.50;;;;;;5000633;28;1347;-69
2023/11/18 10:20:25;;;;;;;;;;;19.80;64.50;;;;;;4999443;28;1383;-69
2023/11/18 10:23:10;;;;;;;;;;;19.80;64.60;;;;;;5018573;28;1379;-69
2023/11/18 10:25:40;;;;;;;;;;;19.80;64.60;;;;;;4989107;28;1322;-69
2023/11/18 10:28:06;;;;;;;;;;;19.80;64.60;;;;;;5000601;28;1020;-69
2023/11/18 10:30:33;;;;;;;;;;;19.80;64.60;;;;;;5001924;28;1266;-69
2023/11/18 10:33:05;;;;;;;;;;;19.80;64.60;;;;;;5003110;28;1387;-69
2023/11/18 10:35:32;;;;;;;;;;;19.80;64.70;;;;;;4999255;28;1906;-69
2023/11/18 10:38:00;;;;;;;;;;;19.80;64.70;;;;;;5000122;28;1303;-69
2023/11/18 10:40:26;;;;;;;;;;;19.80;64.70;;;;;;5006584;28;955;-69
2023/11/18 10:42:52;;;;;;;;;;;19.80;64.70;;;;;;5003775;28;1500;-69
2023/11/18 10:45:27;;;;;;;;;;;19.80;64.70;;;;;;4999657;28;971;-69
2023/11/18 10:47:55;;;;;;;;;;;19.80;64.80;;;;;;5014456;28;1597;-69
2023/11/18 10:50:22;;;;;;;;;;;19.80;64.80;;;;;;4999757;28;1075;-69
2023/11/18 10:52:48;;;;;;;;;;;19.80;64.80;;;;;;5004806;28;1362;-69
2023/11/18 10:55:18;;;;;;;;;;;19.80;64.80;;;;;;5003365;28;1906;-70
2023/11/18 10:57:43;;;;;;;;;;;19.80;64.80;;;;;;5001065;28;999;-69
2023/11/18 11:00:18;;;;;;;;;;;19.80;64.80;;;;;;5000175;28;1364;-68
2023/11/18 11:02:44;;;;;;;;;;;19.80;64.90;;;;;;4996579;28;1391;-69
2023/11/18 11:05:15;;;;;;;;;;;19.80;64.90;;;;;;4998520;28;1387;-69
2023/11/18 11:07:44;;;;;;;;;;;19.80;64.90;;;;;;5004298;28;1430;-69
2023/11/18 11:10:10;;;;;;;;;;;19.80;64.90;;;;;;5000662;28;1002;-70
2023/11/18 11:12:51;;;;;;;;;;;19.80;64.90;;;;;;4998997;28;1502;-69
2023/11/18 11:15:29;;;;;;;;;;;19.80;64.90;;;;;;5004060;28;1914;-69
2023/11/18 11:17:55;;;;;;;;;;;19.80;65.00;;;;;;5018712;28;1324;-69
2023/11/18 11:20:26;;;;;;;;;;;19.80;65.00;;;;;;5003561;28;1324;-69
2023/11/18 11:23:10;;;;;;;;;;;19.80;65.00;;;;;;4989590;28;1399;-69
2023/11/18 11:25:43;;;;;;;;;;;19.80;65.00;;;;;;5005176;28;963;-69
2023/11/18 11:28:17;;;;;;;;;;;19.80;65.00;;;;;;5006332;28;954;-70
2023/11/18 11:30:44;;;;;;;;;;;19.80;65.10;;;;;;5005129;28;1420;-69
2023/11/18 11:33:14;;;;;;;;;;;19.80;65.00;;;;;;5005766;28;1264;-69
2023/11/18 11:35:44;;;;;;;;;;;19.80;65.10;;;;;;5003197;28;1939;-70
2023/11/18 11:38:13;;;;;;;;;;;19.80;65.00;;;;;;5003445;28;1290;-70
2023/11/18 11:40:38;;;;;;;;;;;19.80;65.00;;;;;;5005722;28;974;-69
2023/11/18 11:43:04;;;;;;;;;;;19.80;65.10;;;;;;5007941;28;1864;-69
2023/11/18 11:45:30;;;;;;;;;;;19.80;65.10;;;;;;5002938;28;1371;-69
2023/11/18 11:48:19;;;;;;;;;;;19.80;65.10;;;;;;5006474;28;1717;-69
2023/11/18 11:51:13;;;;;;;;;;;19.80;65.10;;;;;;5015781;28;1537;-68
2023/11/18 11:53:39;;;;;;;;;;;19.80;65.10;;;;;;5019681;28;1383;-69
2023/11/18 11:56:07;;;;;;;;;;;19.80;65.70;;;;;;5003175;28;1902;-70
2023/11/18 11:58:39;;;;;;;;;;;19.80;65.10;;;;;;5003362;28;1282;-69
2023/11/18 12:01:19;;;;;;;;;;;19.80;65.10;;;;;;5004577;28;1267;-70
2023/11/18 12:03:47;;;;;;;;;;;19.80;65.10;;;;;;5005381;28;1370;-70
2023/11/18 12:06:23;;;;;;;;;;;19.80;65.20;;;;;;5004482;28;1254;-70
2023/11/18 12:08:51;;;;;;;;;;;19.80;65.20;;;;;;4986322;28;1339;-70
2023/11/18 12:11:17;;;;;;;;;;;19.70;65.10;;;;;;5003380;28;1495;-70
2023/11/18 12:14:09;;;;;;;;;;;19.80;65.20;;;;;;5003861;28;1375;-70
2023/11/18 12:17:11;;;;;;;;;;;19.80;65.20;;;;;;5004329;28;1358;-69
2023/11/18 12:19:46;;;;;;;;;;;19.80;65.20;;;;;;4993026;28;1478;-70
2023/11/18 12:22:18;;;;;;;;;;;19.80;66.00;;;;;;5004442;28;1267;-69
2023/11/18 12:24:46;;;;;;;;;;;19.80;65.20;;;;;;4999741;28;1743;-68
2023/11/18 12:27:13;;;;;;;;;;;19.80;65.20;;;;;;5003054;28;1893;-70
2023/11/18 12:29:43;;;;;;;;;;;19.80;65.20;;;;;;5003348;28;1255;-70
2023/11/18 12:32:12;;;;;;;;;;;19.80;65.20;;;;;;5002360;28;1670;-70
2023/11/18 12:34:53;;;;;;;;;;;19.80;65.20;;;;;;5006283;28;1979;-70
2023/11/18 12:37:43;;;;;;;;;;;19.80;65.20;;;;;;5007278;28;1572;-69
2023/11/18 12:40:14;;;;;;;;;;;19.80;65.20;;;;;;5005293;28;1420;-69
2023/11/18 12:42:58;;;;;;;;;;;19.80;65.20;;;;;;5006176;28;1345;-69
2023/11/18 12:45:44;;;;;;;;;;;19.80;65.20;;;;;;5005686;28;1253;-69
2023/11/18 12:48:13;;;;;;;;;;;19.80;65.20;;;;;;4982355;28;1450;-70
2023/11/18 12:50:45;;;;;;;;;;;19.80;65.20;;;;;;5005828;28;1466;-71
2023/11/18 12:53:14;;;;;;;;;;;19.80;65.20;;;;;;5004521;28;1240;-69
2023/11/18 12:55:40;;;;;;;;;;;19.80;65.20;;;;;;5004124;28;1910;-69
2023/11/18 12:58:05;;;;;;;;;;;19.80;65.20;;;;;;5007415;28;1400;-69
2023/11/18 13:00:34;;;;;;;;;;;19.80;65.20;;;;;;5003671;28;1439;-70
2023/11/18 13:02:59;;;;;;;;;;;19.80;65.20;;;;;;5004050;28;1349;-70
2023/11/18 13:05:29;;;;;;;;;;;19.80;65.20;;;;;;5007054;28;1497;-70
2023/11/18 13:07:55;;;;;;;;;;;19.80;65.20;;;;;;5007682;28;1405;-70
2023/11/18 13:10:21;;;;;;;;;;;19.80;65.20;;;;;;5006734;28;1519;-70
2023/11/18 13:12:47;;;;;;;;;;;19.80;65.20;;;;;;4998470;28;1349;-70
2023/11/18 13:15:12;;;;;;;;;;;19.80;65.20;;;;;;5006931;28;1956;-70
2023/11/18 13:17:40;;;;;;;;;;;19.80;65.20;;;;;;5001341;28;1232;-70
2023/11/18 13:20:15;;;;;;;;;;;19.80;65.20;;;;;;5004350;28;1340;-70
2023/11/18 13:22:43;;;;;;;;;;;19.80;65.20;;;;;;5000859;28;1341;-70
2023/11/18 13:25:09;;;;;;;;;;;19.80;65.20;;;;;;5006524;28;1335;-70
2023/11/18 13:27:34;;;;;;;;;;;19.80;65.20;;;;;;5000300;28;1373;-71
2023/11/18 13:30:00;;;;;;;;;;;19.80;65.20;;;;;;5002772;28;1337;-70
2023/11/18 13:32:26;;;;;;;;;;;19.80;65.20;;;;;;5001101;28;1360;-70
2023/11/18 13:34:52;;;;;;;;;;;19.80;65.20;;;;;;5005686;28;1903;-73
2023/11/18 13:37:18;;;;;;;;;;;19.80;66.00;;;;;;5001253;28;1398;-71
2023/11/18 13:39:54;;;;;;;;;;;19.80;65.20;;;;;;4985642;28;1335;-70
2023/11/18 13:42:27;;;;;;;;;;;19.80;65.20;;;;;;5004823;28;1249;-71
2023/11/18 13:44:53;;;;;;;;;;;19.80;65.20;;;;;;5003529;28;1431;-69
2023/11/18 13:47:22;;;;;;;;;;;19.80;65.20;;;;;;4998039;28;2168;-68
2023/11/18 13:49:53;;;;;;;;;;;19.80;65.20;;;;;;5001222;28;879;-70
2023/11/18 13:52:18;;;;;;;;;;;19.80;65.20;;;;;;5002925;28;1334;-70
2023/11/18 13:54:45;;;;;;;;;;;19.80;65.20;;;;;;5008881;28;1902;-71
2023/11/18 13:57:11;;;;;;;;;;;19.80;65.20;;;;;;5008744;28;1164;-71
2023/11/18 13:59:37;;;;;;;;;;;19.80;65.20;;;;;;5001086;28;888;-70
2023/11/18 14:02:04;;;;;;;;;;;19.80;65.20;;;;;;5003443;28;1393;-69
2023/11/18 14:04:29;;;;;;;;;;;19.80;65.20;;;;;;5004269;28;1300;-69
2023/11/18 14:06:59;;;;;;;;;;;19.80;65.20;;;;;;5000681;28;1390;-68
2023/11/18 14:09:29;;;;;;;;;;;19.80;65.20;;;;;;5001208;28;1301;-69
2023/11/18 14:11:56;;;;;;;;;;;19.80;65.30;;;;;;5001816;28;1394;-69
2023/11/18 14:14:22;;;;;;;;;;;19.80;65.20;;;;;;5002855;28;1938;-68
2023/11/18 14:16:49;;;;;;;;;;;19.80;65.30;;;;;;5002297;28;1245;-70
2023/11/18 14:19:15;;;;;;;;;;;19.80;65.30;;;;;;5017216;28;1358;-68
2023/11/18 14:21:40;;;;;;;;;;;19.80;65.30;;;;;;5006063;28;932;-69
2023/11/18 14:24:07;;;;;;;;;;;19.80;65.30;;;;;;5006966;28;1678;-68
2023/11/18 14:26:33;;;;;;;;;;;19.80;65.30;;;;;;5019282;28;1277;-69
2023/11/18 14:28:59;;;;;;;;;;;19.80;65.30;;;;;;5002305;28;1253;-72
2023/11/18 14:31:25;;;;;;;;;;;19.80;65.30;;;;;;4997239;28;2022;-68
2023/11/18 14:33:51;;;;;;;;;;;19.80;65.30;;;;;;5002342;28;1264;-71
2023/11/18 14:36:17;;;;;;;;;;;19.80;65.30;;;;;;4999142;28;1967;-70
2023/11/18 14:38:42;;;;;;;;;;;19.80;65.30;;;;;;5000430;28;1165;-69